sensor_id;sensor_type;location;lat;lon;timestamp;P1;durP1;ratioP1;P2;durP2;ratioP2
64543;SDS011;50936;51.660;5.616;2023-04-01T00:00:25;7.43;;;2.60;;
64543;SDS011;50936;51.660;5.616;2023-04-01T00:02:52;9.23;;;2.55;;
64543;SDS011;50936;51.660;5.616;2023-04-01T00:05:19;10.55;;;3.00;;
64543;SDS011;50936;51.660;5.616;2023-04-01T00:07:46;5.15;;;2.58;;
64543;SDS011;50936;51.660;5.616;2023-04-01T00:10:13;5.93;;;1.83;;
64543;SDS011;50936;51.660;5.616;2023-04-01T00:12:40;6.28;;;2.33;;
64543;SDS011;50936;51.660;5.616;2023-04-01T00:15:08;7.53;;;1.77;;
64543;SDS011;50936;51.660;5.616;2023-04-01T00:17:38;4.82;;;2.42;;
64543;SDS011;50936;51.660;5.616;2023-04-01T00:20:05;2.75;;;1.55;;
64543;SDS011;50936;51.660;5.616;2023-04-01T00:22:34;6.07;;;1.42;;
64543;SDS011;50936;51.660;5.616;2023-04-01T00:25:01;4.75;;;2.05;;
64543;SDS011;50936;51.660;5.616;2023-04-01T00:27:29;10.77;;;2.03;;
64543;SDS011;50936;51.660;5.616;2023-04-01T00:29:56;6.55;;;2.28;;
64543;SDS011;50936;51.660;5.616;2023-04-01T00:32:23;5.28;;;2.00;;
64543;SDS011;50936;51.660;5.616;2023-04-01T00:34:50;6.85;;;2.50;;
64543;SDS011;50936;51.660;5.616;2023-04-01T00:37:18;5.07;;;1.67;;
64543;SDS011;50936;51.660;5.616;2023-04-01T00:39:47;7.68;;;3.05;;
64543;SDS011;50936;51.660;5.616;2023-04-01T00:42:14;8.02;;;2.22;;
64543;SDS011;50936;51.660;5.616;2023-04-01T00:44:42;7.70;;;3.10;;
64543;SDS011;50936;51.660;5.616;2023-04-01T00:47:14;6.78;;;3.05;;
64543;SDS011;50936;51.660;5.616;2023-04-01T00:49:42;5.70;;;2.60;;
64543;SDS011;50936;51.660;5.616;2023-04-01T00:52:20;10.38;;;3.72;;
64543;SDS011;50936;51.660;5.616;2023-04-01T00:54:53;8.32;;;3.10;;
64543;SDS011;50936;51.660;5.616;2023-04-01T00:57:31;7.25;;;3.35;;
64543;SDS011;50936;51.660;5.616;2023-04-01T01:00:04;9.00;;;3.40;;
64543;SDS011;50936;51.660;5.616;2023-04-01T01:02:37;7.15;;;3.95;;
64543;SDS011;50936;51.660;5.616;2023-04-01T01:05:07;5.88;;;2.72;;
64543;SDS011;50936;51.660;5.616;2023-04-01T01:16:04;6.60;;;3.85;;
64543;SDS011;50936;51.660;5.616;2023-04-01T01:25:59;9.43;;;5.88;;
64543;SDS011;50936;51.660;5.616;2023-04-01T01:34:54;11.88;;;7.25;;
64543;SDS011;50936;51.660;5.616;2023-04-01T01:38:00;13.75;;;6.78;;
64543;SDS011;50936;51.660;5.616;2023-04-01T01:40:38;11.93;;;5.00;;
64543;SDS011;50936;51.660;5.616;2023-04-01T01:43:12;11.35;;;5.18;;
64543;SDS011;50936;51.660;5.616;2023-04-01T01:45:46;10.38;;;5.50;;
64543;SDS011;50936;51.660;5.616;2023-04-01T01:48:19;11.15;;;7.03;;
64543;SDS011;50936;51.660;5.616;2023-04-01T01:50:48;10.07;;;6.35;;
64543;SDS011;50936;51.660;5.616;2023-04-01T01:53:18;11.30;;;6.13;;
64543;SDS011;50936;51.660;5.616;2023-04-01T01:55:46;14.45;;;7.13;;
64543;SDS011;50936;51.660;5.616;2023-04-01T01:58:19;9.73;;;5.85;;
64543;SDS011;50936;51.660;5.616;2023-04-01T02:00:56;11.18;;;6.03;;
64543;SDS011;50936;51.660;5.616;2023-04-01T02:05:59;15.13;;;7.18;;
64543;SDS011;50936;51.660;5.616;2023-04-01T02:08:40;13.30;;;5.05;;
64543;SDS011;50936;51.660;5.616;2023-04-01T02:11:16;10.35;;;6.28;;
64543;SDS011;50936;51.660;5.616;2023-04-01T02:13:56;7.28;;;4.22;;
64543;SDS011;50936;51.660;5.616;2023-04-01T02:16:33;8.65;;;5.55;;
64543;SDS011;50936;51.660;5.616;2023-04-01T02:19:21;7.88;;;4.30;;
64543;SDS011;50936;51.660;5.616;2023-04-01T02:21:59;8.85;;;4.68;;
64543;SDS011;50936;51.660;5.616;2023-04-01T02:24:32;9.52;;;5.88;;
64543;SDS011;50936;51.660;5.616;2023-04-01T02:27:02;9.05;;;5.40;;
64543;SDS011;50936;51.660;5.616;2023-04-01T02:29:30;6.07;;;3.30;;
64543;SDS011;50936;51.660;5.616;2023-04-01T02:31:58;5.45;;;2.75;;
64543;SDS011;50936;51.660;5.616;2023-04-01T02:34:27;7.93;;;4.70;;
64543;SDS011;50936;51.660;5.616;2023-04-01T02:36:54;6.95;;;2.85;;
64543;SDS011;50936;51.660;5.616;2023-04-01T02:39:23;12.75;;;5.47;;
64543;SDS011;50936;51.660;5.616;2023-04-01T02:41:52;11.60;;;5.50;;
64543;SDS011;50936;51.660;5.616;2023-04-01T02:44:19;11.20;;;5.25;;
64543;SDS011;50936;51.660;5.616;2023-04-01T02:46:46;9.80;;;5.35;;
64543;SDS011;50936;51.660;5.616;2023-04-01T02:49:13;8.35;;;3.65;;
64543;SDS011;50936;51.660;5.616;2023-04-01T02:51:40;7.68;;;3.03;;
64543;SDS011;50936;51.660;5.616;2023-04-01T02:54:08;6.15;;;3.33;;
64543;SDS011;50936;51.660;5.616;2023-04-01T02:56:43;5.50;;;3.33;;
64543;SDS011;50936;51.660;5.616;2023-04-01T02:59:12;7.75;;;3.88;;
64543;SDS011;50936;51.660;5.616;2023-04-01T03:01:39;6.30;;;3.03;;
64543;SDS011;50936;51.660;5.616;2023-04-01T03:04:06;7.15;;;3.17;;
64543;SDS011;50936;51.660;5.616;2023-04-01T03:06:32;7.03;;;3.08;;
64543;SDS011;50936;51.660;5.616;2023-04-01T03:08:59;7.88;;;5.05;;
64543;SDS011;50936;51.660;5.616;2023-04-01T03:11:26;8.18;;;3.88;;
64543;SDS011;50936;51.660;5.616;2023-04-01T03:13:53;7.97;;;4.30;;
64543;SDS011;50936;51.660;5.616;2023-04-01T03:16:20;6.47;;;4.05;;
64543;SDS011;50936;51.660;5.616;2023-04-01T03:18:49;5.68;;;3.75;;
64543;SDS011;50936;51.660;5.616;2023-04-01T03:21:20;7.90;;;4.07;;
64543;SDS011;50936;51.660;5.616;2023-04-01T03:23:52;6.07;;;3.60;;
64543;SDS011;50936;51.660;5.616;2023-04-01T03:26:19;8.30;;;4.15;;
64543;SDS011;50936;51.660;5.616;2023-04-01T03:28:46;9.32;;;4.65;;
64543;SDS011;50936;51.660;5.616;2023-04-01T03:31:13;8.98;;;4.75;;
64543;SDS011;50936;51.660;5.616;2023-04-01T03:33:51;10.10;;;4.15;;
64543;SDS011;50936;51.660;5.616;2023-04-01T03:36:18;10.50;;;5.40;;
64543;SDS011;50936;51.660;5.616;2023-04-01T03:38:46;10.93;;;5.07;;
64543;SDS011;50936;51.660;5.616;2023-04-01T03:41:18;10.23;;;5.25;;
64543;SDS011;50936;51.660;5.616;2023-04-01T03:43:45;13.45;;;6.40;;
64543;SDS011;50936;51.660;5.616;2023-04-01T03:46:16;12.43;;;6.35;;
64543;SDS011;50936;51.660;5.616;2023-04-01T03:48:47;12.55;;;7.38;;
64543;SDS011;50936;51.660;5.616;2023-04-01T03:51:14;13.52;;;7.13;;
64543;SDS011;50936;51.660;5.616;2023-04-01T03:53:41;10.35;;;4.82;;
64543;SDS011;50936;51.660;5.616;2023-04-01T03:56:08;10.23;;;5.72;;
64543;SDS011;50936;51.660;5.616;2023-04-01T03:58:35;11.73;;;5.65;;
64543;SDS011;50936;51.660;5.616;2023-04-01T04:01:13;15.52;;;7.57;;
64543;SDS011;50936;51.660;5.616;2023-04-01T04:03:49;10.32;;;4.38;;
64543;SDS011;50936;51.660;5.616;2023-04-01T04:06:18;11.50;;;6.13;;
64543;SDS011;50936;51.660;5.616;2023-04-01T04:08:46;9.30;;;4.30;;
64543;SDS011;50936;51.660;5.616;2023-04-01T04:11:13;10.75;;;5.97;;
64543;SDS011;50936;51.660;5.616;2023-04-01T04:13:42;8.80;;;4.88;;
64543;SDS011;50936;51.660;5.616;2023-04-01T04:16:10;7.63;;;4.15;;
64543;SDS011;50936;51.660;5.616;2023-04-01T04:18:44;7.47;;;3.80;;
64543;SDS011;50936;51.660;5.616;2023-04-01T04:21:12;7.72;;;3.97;;
64543;SDS011;50936;51.660;5.616;2023-04-01T04:23:41;5.50;;;2.70;;
64543;SDS011;50936;51.660;5.616;2023-04-01T04:26:11;7.00;;;4.40;;
64543;SDS011;50936;51.660;5.616;2023-04-01T04:28:46;7.15;;;5.43;;
64543;SDS011;50936;51.660;5.616;2023-04-01T04:31:21;7.75;;;4.70;;
64543;SDS011;50936;51.660;5.616;2023-04-01T04:33:52;8.43;;;3.83;;
64543;SDS011;50936;51.660;5.616;2023-04-01T04:36:20;9.20;;;4.80;;
64543;SDS011;50936;51.660;5.616;2023-04-01T04:38:50;8.77;;;3.88;;
64543;SDS011;50936;51.660;5.616;2023-04-01T04:41:17;10.63;;;4.35;;
64543;SDS011;50936;51.660;5.616;2023-04-01T04:43:53;5.75;;;3.10;;
64543;SDS011;50936;51.660;5.616;2023-04-01T04:46:23;6.43;;;3.70;;
64543;SDS011;50936;51.660;5.616;2023-04-01T04:48:57;7.88;;;4.95;;
64543;SDS011;50936;51.660;5.616;2023-04-01T04:51:24;7.35;;;2.88;;
64543;SDS011;50936;51.660;5.616;2023-04-01T04:53:52;6.95;;;4.03;;
64543;SDS011;50936;51.660;5.616;2023-04-01T04:56:28;6.00;;;2.95;;
64543;SDS011;50936;51.660;5.616;2023-04-01T04:59:04;7.03;;;4.03;;
64543;SDS011;50936;51.660;5.616;2023-04-01T05:01:41;10.48;;;4.25;;
64543;SDS011;50936;51.660;5.616;2023-04-01T05:04:08;7.40;;;4.07;;
64543;SDS011;50936;51.660;5.616;2023-04-01T05:06:35;7.13;;;3.47;;
64543;SDS011;50936;51.660;5.616;2023-04-01T05:09:02;7.97;;;4.50;;
64543;SDS011;50936;51.660;5.616;2023-04-01T05:11:29;9.75;;;5.90;;
64543;SDS011;50936;51.660;5.616;2023-04-01T05:13:56;8.90;;;4.70;;
64543;SDS011;50936;51.660;5.616;2023-04-01T05:16:23;10.63;;;4.65;;
64543;SDS011;50936;51.660;5.616;2023-04-01T05:18:50;9.18;;;4.38;;
64543;SDS011;50936;51.660;5.616;2023-04-01T05:21:17;8.77;;;5.72;;
64543;SDS011;50936;51.660;5.616;2023-04-01T05:23:45;9.27;;;4.15;;
64543;SDS011;50936;51.660;5.616;2023-04-01T05:26:12;9.68;;;6.15;;
64543;SDS011;50936;51.660;5.616;2023-04-01T05:28:41;9.90;;;4.93;;
64543;SDS011;50936;51.660;5.616;2023-04-01T05:31:09;10.40;;;4.72;;
64543;SDS011;50936;51.660;5.616;2023-04-01T05:33:42;9.85;;;4.30;;
64543;SDS011;50936;51.660;5.616;2023-04-01T05:36:10;10.57;;;5.00;;
64543;SDS011;50936;51.660;5.616;2023-04-01T05:38:41;9.30;;;4.78;;
64543;SDS011;50936;51.660;5.616;2023-04-01T05:41:10;13.38;;;6.07;;
64543;SDS011;50936;51.660;5.616;2023-04-01T05:43:42;9.80;;;5.18;;
64543;SDS011;50936;51.660;5.616;2023-04-01T05:46:44;10.13;;;4.70;;
64543;SDS011;50936;51.660;5.616;2023-04-01T05:49:18;12.57;;;6.60;;
64543;SDS011;50936;51.660;5.616;2023-04-01T05:51:46;19.77;;;7.53;;
64543;SDS011;50936;51.660;5.616;2023-04-01T05:54:13;15.88;;;7.03;;
64543;SDS011;50936;51.660;5.616;2023-04-01T05:56:40;12.23;;;6.60;;
64543;SDS011;50936;51.660;5.616;2023-04-01T05:59:09;15.20;;;9.15;;
64543;SDS011;50936;51.660;5.616;2023-04-01T06:01:38;19.02;;;10.88;;
64543;SDS011;50936;51.660;5.616;2023-04-01T06:04:05;19.63;;;8.95;;
64543;SDS011;50936;51.660;5.616;2023-04-01T06:06:33;14.15;;;6.15;;
64543;SDS011;50936;51.660;5.616;2023-04-01T06:09:12;16.58;;;10.55;;
64543;SDS011;50936;51.660;5.616;2023-04-01T06:17:50;21.35;;;9.07;;
64543;SDS011;50936;51.660;5.616;2023-04-01T06:30:10;26.00;;;13.73;;
64543;SDS011;50936;51.660;5.616;2023-04-01T06:36:01;22.23;;;8.35;;
64543;SDS011;50936;51.660;5.616;2023-04-01T06:39:01;14.05;;;7.47;;
64543;SDS011;50936;51.660;5.616;2023-04-01T06:44:37;16.38;;;8.80;;
64543;SDS011;50936;51.660;5.616;2023-04-01T06:51:07;18.52;;;8.90;;
64543;SDS011;50936;51.660;5.616;2023-04-01T06:54:09;17.42;;;7.47;;
64543;SDS011;50936;51.660;5.616;2023-04-01T06:57:09;16.33;;;5.28;;
64543;SDS011;50936;51.660;5.616;2023-04-01T07:00:14;14.70;;;7.55;;
64543;SDS011;50936;51.660;5.616;2023-04-01T07:06:12;18.73;;;7.82;;
64543;SDS011;50936;51.660;5.616;2023-04-01T07:09:00;20.85;;;8.75;;
64543;SDS011;50936;51.660;5.616;2023-04-01T07:12:40;23.70;;;10.90;;
64543;SDS011;50936;51.660;5.616;2023-04-01T07:18:05;21.77;;;9.05;;
64543;SDS011;50936;51.660;5.616;2023-04-01T07:20:43;28.13;;;7.95;;
64543;SDS011;50936;51.660;5.616;2023-04-01T07:23:21;23.10;;;8.43;;
64543;SDS011;50936;51.660;5.616;2023-04-01T07:26:14;20.73;;;8.65;;
64543;SDS011;50936;51.660;5.616;2023-04-01T07:28:52;29.88;;;9.82;;
64543;SDS011;50936;51.660;5.616;2023-04-01T07:34:59;28.35;;;9.52;;
64543;SDS011;50936;51.660;5.616;2023-04-01T07:43:50;27.45;;;9.77;;
64543;SDS011;50936;51.660;5.616;2023-04-01T07:55:32;18.80;;;9.77;;
64543;SDS011;50936;51.660;5.616;2023-04-01T08:04:37;19.85;;;10.98;;
64543;SDS011;50936;51.660;5.616;2023-04-01T08:07:20;20.73;;;8.10;;
64543;SDS011;50936;51.660;5.616;2023-04-01T08:10:15;19.00;;;7.03;;
64543;SDS011;50936;51.660;5.616;2023-04-01T08:17:00;27.65;;;8.77;;
64543;SDS011;50936;51.660;5.616;2023-04-01T08:22:42;22.02;;;8.77;;
64543;SDS011;50936;51.660;5.616;2023-04-01T08:25:24;23.80;;;8.43;;
64543;SDS011;50936;51.660;5.616;2023-04-01T08:33:30;18.60;;;7.85;;
64543;SDS011;50936;51.660;5.616;2023-04-01T08:36:13;23.65;;;7.93;;
64543;SDS011;50936;51.660;5.616;2023-04-01T08:39:29;20.67;;;8.38;;
64543;SDS011;50936;51.660;5.616;2023-04-01T08:47:45;18.80;;;9.07;;
64543;SDS011;50936;51.660;5.616;2023-04-01T08:56:58;28.98;;;10.50;;
64543;SDS011;50936;51.660;5.616;2023-04-01T09:15:35;22.58;;;9.10;;
64543;SDS011;50936;51.660;5.616;2023-04-01T09:24:46;36.53;;;10.10;;
64543;SDS011;50936;51.660;5.616;2023-04-01T09:54:52;19.52;;;8.70;;
64543;SDS011;50936;51.660;5.616;2023-04-01T10:00:56;20.23;;;8.13;;
64543;SDS011;50936;51.660;5.616;2023-04-01T10:11:02;16.30;;;7.68;;
64543;SDS011;50936;51.660;5.616;2023-04-01T10:38:21;19.15;;;7.82;;
64543;SDS011;50936;51.660;5.616;2023-04-01T10:50:13;17.95;;;7.22;;
64543;SDS011;50936;51.660;5.616;2023-04-01T10:56:56;10.15;;;4.78;;
64543;SDS011;50936;51.660;5.616;2023-04-01T11:45:10;15.80;;;7.40;;
64543;SDS011;50936;51.660;5.616;2023-04-01T11:47:50;18.17;;;6.15;;
64543;SDS011;50936;51.660;5.616;2023-04-01T11:54:06;20.00;;;7.85;;
64543;SDS011;50936;51.660;5.616;2023-04-01T11:59:57;20.88;;;7.70;;
64543;SDS011;50936;51.660;5.616;2023-04-01T12:08:41;8.82;;;4.50;;
64543;SDS011;50936;51.660;5.616;2023-04-01T12:19:48;10.70;;;4.95;;
64543;SDS011;50936;51.660;5.616;2023-04-01T12:22:45;10.10;;;4.53;;
64543;SDS011;50936;51.660;5.616;2023-04-01T12:28:40;7.60;;;3.92;;
64543;SDS011;50936;51.660;5.616;2023-04-01T12:37:07;9.30;;;4.43;;
64543;SDS011;50936;51.660;5.616;2023-04-01T13:07:16;7.55;;;3.85;;
64543;SDS011;50936;51.660;5.616;2023-04-01T13:10:11;8.32;;;4.35;;
64543;SDS011;50936;51.660;5.616;2023-04-01T13:16:14;8.00;;;4.55;;
64543;SDS011;50936;51.660;5.616;2023-04-01T13:21:38;9.90;;;4.97;;
64543;SDS011;50936;51.660;5.616;2023-04-01T13:30:24;9.88;;;4.38;;
64543;SDS011;50936;51.660;5.616;2023-04-01T13:39:35;11.00;;;4.72;;
64543;SDS011;50936;51.660;5.616;2023-04-01T13:42:21;11.85;;;5.13;;
64543;SDS011;50936;51.660;5.616;2023-04-01T14:18:45;13.20;;;5.22;;
64543;SDS011;50936;51.660;5.616;2023-04-01T14:21:35;9.80;;;4.22;;
64543;SDS011;50936;51.660;5.616;2023-04-01T14:27:21;15.25;;;6.55;;
64543;SDS011;50936;51.660;5.616;2023-04-01T14:33:05;10.68;;;6.05;;
64543;SDS011;50936;51.660;5.616;2023-04-01T14:50:50;12.93;;;5.38;;
64543;SDS011;50936;51.660;5.616;2023-04-01T14:55:53;17.05;;;6.78;;
64543;SDS011;50936;51.660;5.616;2023-04-01T14:58:40;11.38;;;5.20;;
64543;SDS011;50936;51.660;5.616;2023-04-01T15:16:04;12.85;;;5.35;;
64543;SDS011;50936;51.660;5.616;2023-04-01T15:24:53;12.02;;;6.13;;
64543;SDS011;50936;51.660;5.616;2023-04-01T15:27:45;11.82;;;6.40;;
64543;SDS011;50936;51.660;5.616;2023-04-01T15:31:09;15.60;;;6.45;;
64543;SDS011;50936;51.660;5.616;2023-04-01T15:37:00;20.90;;;7.82;;
64543;SDS011;50936;51.660;5.616;2023-04-01T15:48:26;12.20;;;6.55;;
64543;SDS011;50936;51.660;5.616;2023-04-01T16:07:27;13.45;;;6.15;;
64543;SDS011;50936;51.660;5.616;2023-04-01T16:30:27;11.45;;;5.13;;
64543;SDS011;50936;51.660;5.616;2023-04-01T16:33:24;15.75;;;6.28;;
64543;SDS011;50936;51.660;5.616;2023-04-01T16:37:22;18.52;;;7.45;;
64543;SDS011;50936;51.660;5.616;2023-04-01T16:39:52;19.45;;;7.90;;
64543;SDS011;50936;51.660;5.616;2023-04-01T16:42:43;18.10;;;8.75;;
64543;SDS011;50936;51.660;5.616;2023-04-01T16:48:22;15.25;;;6.88;;
64543;SDS011;50936;51.660;5.616;2023-04-01T16:51:12;16.98;;;7.22;;
64543;SDS011;50936;51.660;5.616;2023-04-01T16:53:45;15.85;;;6.95;;
64543;SDS011;50936;51.660;5.616;2023-04-01T16:59:06;15.30;;;6.68;;
64543;SDS011;50936;51.660;5.616;2023-04-01T17:18:47;11.38;;;5.40;;
64543;SDS011;50936;51.660;5.616;2023-04-01T17:22:09;11.13;;;5.00;;
64543;SDS011;50936;51.660;5.616;2023-04-01T17:31:14;10.55;;;4.45;;
64543;SDS011;50936;51.660;5.616;2023-04-01T17:42:22;10.38;;;4.90;;
64543;SDS011;50936;51.660;5.616;2023-04-01T17:54:28;13.15;;;5.60;;
64543;SDS011;50936;51.660;5.616;2023-04-01T18:05:30;8.32;;;4.13;;
64543;SDS011;50936;51.660;5.616;2023-04-01T18:22:59;12.15;;;5.20;;
64543;SDS011;50936;51.660;5.616;2023-04-01T18:25:32;10.10;;;5.00;;
64543;SDS011;50936;51.660;5.616;2023-04-01T18:31:26;11.95;;;5.50;;
64543;SDS011;50936;51.660;5.616;2023-04-01T18:34:08;10.43;;;5.05;;
64543;SDS011;50936;51.660;5.616;2023-04-01T18:37:12;12.35;;;5.80;;
64543;SDS011;50936;51.660;5.616;2023-04-01T18:42:57;19.77;;;9.88;;
64543;SDS011;50936;51.660;5.616;2023-04-01T18:46:21;12.73;;;6.47;;
64543;SDS011;50936;51.660;5.616;2023-04-01T18:51:57;12.23;;;5.90;;
64543;SDS011;50936;51.660;5.616;2023-04-01T18:55:14;10.52;;;5.30;;
64543;SDS011;50936;51.660;5.616;2023-04-01T18:58:12;12.45;;;6.00;;
64543;SDS011;50936;51.660;5.616;2023-04-01T19:15:13;15.00;;;8.18;;
64543;SDS011;50936;51.660;5.616;2023-04-01T19:26:21;11.57;;;5.40;;
64543;SDS011;50936;51.660;5.616;2023-04-01T19:28:58;11.77;;;5.15;;
64543;SDS011;50936;51.660;5.616;2023-04-01T19:31:59;13.07;;;6.63;;
64543;SDS011;50936;51.660;5.616;2023-04-01T19:38:26;12.02;;;6.25;;
64543;SDS011;50936;51.660;5.616;2023-04-01T19:47:30;14.77;;;6.97;;
64543;SDS011;50936;51.660;5.616;2023-04-01T19:50:37;14.98;;;7.28;;
64543;SDS011;50936;51.660;5.616;2023-04-01T19:56:18;15.75;;;7.82;;
64543;SDS011;50936;51.660;5.616;2023-04-01T20:02:18;17.77;;;7.80;;
64543;SDS011;50936;51.660;5.616;2023-04-01T20:04:54;17.00;;;7.90;;
64543;SDS011;50936;51.660;5.616;2023-04-01T20:07:34;14.90;;;6.85;;
64543;SDS011;50936;51.660;5.616;2023-04-01T20:10:13;16.05;;;7.63;;
64543;SDS011;50936;51.660;5.616;2023-04-01T20:15:36;20.50;;;8.80;;
64543;SDS011;50936;51.660;5.616;2023-04-01T20:21:02;18.63;;;8.50;;
64543;SDS011;50936;51.660;5.616;2023-04-01T20:23:42;17.67;;;7.80;;
64543;SDS011;50936;51.660;5.616;2023-04-01T20:26:36;17.63;;;8.30;;
64543;SDS011;50936;51.660;5.616;2023-04-01T20:37:58;15.02;;;7.15;;
64543;SDS011;50936;51.660;5.616;2023-04-01T20:40:59;15.57;;;7.43;;
64543;SDS011;50936;51.660;5.616;2023-04-01T20:43:47;15.88;;;7.35;;
64543;SDS011;50936;51.660;5.616;2023-04-01T20:53:01;17.08;;;6.65;;
64543;SDS011;50936;51.660;5.616;2023-04-01T20:59:09;14.45;;;6.35;;
64543;SDS011;50936;51.660;5.616;2023-04-01T21:04:54;17.75;;;6.95;;
64543;SDS011;50936;51.660;5.616;2023-04-01T21:08:09;16.98;;;8.63;;
64543;SDS011;50936;51.660;5.616;2023-04-01T21:43:31;18.13;;;7.90;;
64543;SDS011;50936;51.660;5.616;2023-04-01T21:49:22;17.63;;;8.13;;
64543;SDS011;50936;51.660;5.616;2023-04-01T22:09:58;25.85;;;11.60;;
64543;SDS011;50936;51.660;5.616;2023-04-01T22:16:03;17.92;;;8.68;;
64543;SDS011;50936;51.660;5.616;2023-04-01T22:18:46;23.60;;;11.43;;
64543;SDS011;50936;51.660;5.616;2023-04-01T22:21:44;22.05;;;9.98;;
64543;SDS011;50936;51.660;5.616;2023-04-01T22:27:58;20.80;;;10.27;;
64543;SDS011;50936;51.660;5.616;2023-04-01T22:30:39;21.05;;;9.93;;
64543;SDS011;50936;51.660;5.616;2023-04-01T22:36:33;22.35;;;9.77;;
64543;SDS011;50936;51.660;5.616;2023-04-01T22:42:28;16.02;;;8.02;;
64543;SDS011;50936;51.660;5.616;2023-04-01T22:45:24;18.70;;;9.25;;
64543;SDS011;50936;51.660;5.616;2023-04-01T22:56:57;16.48;;;8.88;;
64543;SDS011;50936;51.660;5.616;2023-04-01T22:59:48;16.73;;;8.40;;
64543;SDS011;50936;51.660;5.616;2023-04-01T23:11:22;18.17;;;8.52;;
64543;SDS011;50936;51.660;5.616;2023-04-01T23:14:05;17.00;;;8.95;;
64543;SDS011;50936;51.660;5.616;2023-04-01T23:17:03;15.13;;;7.72;;
64543;SDS011;50936;51.660;5.616;2023-04-01T23:22:44;16.38;;;8.43;;
64543;SDS011;50936;51.660;5.616;2023-04-01T23:25:25;15.52;;;8.40;;
64543;SDS011;50936;51.660;5.616;2023-04-01T23:28:40;11.60;;;5.68;;
64543;SDS011;50936;51.660;5.616;2023-04-01T23:31:29;14.25;;;7.65;;
64543;SDS011;50936;51.660;5.616;2023-04-01T23:36:43;16.42;;;8.18;;
64543;SDS011;50936;51.660;5.616;2023-04-01T23:39:21;15.55;;;7.43;;
64543;SDS011;50936;51.660;5.616;2023-04-01T23:42:45;13.52;;;7.22;;
64543;SDS011;50936;51.660;5.616;2023-04-01T23:44:53;16.48;;;7.85;;
64543;SDS011;50936;51.660;5.616;2023-04-01T23:47:32;14.60;;;8.00;;
64543;SDS011;50936;51.660;5.616;2023-04-01T23:50:03;12.57;;;6.30;;
64543;SDS011;50936;51.660;5.616;2023-04-01T23:52:54;12.15;;;6.57;;
64543;SDS011;50936;51.660;5.616;2023-04-01T23:55:37;19.52;;;7.85;;
